Time;durP1;ratioP1;P1;durP2;ratioP2;P2;SDS_P1;SDS_P2;PMS_P1;PMS_P2;Temp;Humidity;BMP_temperature;BMP_pressure;BME280_temperature;BME280_humidity;BME280_pressure;Samples;Min_cycle;Max_cycle;Signal;HPM_P1;HPM_P2
2023/06/15 00:05:49;;;;;;;;;31.33;29.67;;;;;24.78;39.33;100747.38;6069115;23;45362;-83
2023/06/15 00:08:29;;;;;;;;;32.67;30.33;;;;;24.73;39.42;100725.81;6076528;23;45368;-84
2023/06/15 00:11:50;;;;;;;;;31.33;29.33;;;;;24.91;39.76;100770.34;6116426;22;45445;-84
2023/06/15 00:18:13;;;;;;;;;;;;;;;;;;;;;
2023/06/15 00:20:58;;;;;;;;;30.33;29.00;;;;;24.62;40.02;100744.47;6157229;23;68609;-84
2023/06/15 00:26:51;;;;;;;;;34.00;31.33;;;;;24.57;40.38;100751.06;6188953;23;44836;-83
2023/06/15 00:29:22;;;;;;;;;33.33;31.67;;;;;24.69;40.74;100773.16;6181883;23;45399;-83
2023/06/15 00:35:22;;;;;;;;;32.00;30.67;;;;;24.68;40.70;100782.28;6188935;23;45294;-84
2023/06/15 00:37:56;;;;;;;;;30.00;29.67;;;;;24.44;40.94;100756.09;6222876;22;46621;-84
2023/06/15 00:40:43;;;;;;;;;31.00;30.00;;;;;24.64;40.73;100790.63;6247765;22;45182;-83
2023/06/15 00:47:16;;;;;;;;;24.33;24.00;;;;;24.31;40.99;100748.47;6254365;22;45243;-84
2023/06/15 00:50:19;;;;;;;;;32.33;29.67;;;;;24.57;40.87;100794.56;6253216;22;45549;-83
2023/06/15 00:56:13;;;;;;;;;35.00;31.00;;;;;24.24;41.63;100751.50;6252690;22;45223;-83
2023/06/15 01:05:50;;;;;;;;;32.67;30.00;;;;;24.31;42.32;100789.25;6219830;22;45505;-83
2023/06/15 01:08:42;;;;;;;;;32.67;31.00;;;;;24.33;41.74;100789.19;6218262;22;45760;-84
2023/06/15 01:11:57;;;;;;;;;32.33;31.33;;;;;24.31;42.38;100793.81;6253021;22;45421;-84
2023/06/15 01:18:09;;;;;;;;;36.00;32.67;;;;;24.14;42.42;100789.97;6250609;22;45494;-84
2023/06/15 01:27:31;;;;;;;;;29.67;29.00;;;;;24.09;42.85;100793.81;6250620;22;45434;-84
2023/06/15 01:30:36;;;;;;;;;;;;;;;;;;;;;
2023/06/15 01:37:02;;;;;;;;;36.00;32.00;;;;;23.94;43.44;100795.34;6222906;22;45387;-83
2023/06/15 01:40:22;;;;;;;;;30.00;30.00;;;;;23.89;43.79;100791.91;6224105;22;45637;-83
2023/06/15 01:49:53;;;;;;;;;31.67;29.67;;;;;23.69;43.96;100784.53;6128968;23;45378;-83
2023/06/15 02:09:17;;;;;;;;;30.33;28.67;;;;;23.27;45.07;100777.09;6130833;22;45435;-84
2023/06/15 02:12:21;;;;;;;;;;;;;;;;;;;;;
2023/06/15 02:39:55;;;;;;;;;33.00;30.00;;;;;23.16;46.29;100796.50;6162334;23;45364;-83
2023/06/15 02:50:23;;;;;;;;;31.33;30.00;;;;;23.04;46.05;100807.81;6163031;23;45431;-83
2023/06/15 03:11:13;;;;;;;;;37.00;31.33;;;;;22.77;47.28;100807.84;6156813;23;45371;-83
2023/06/15 03:14:02;;;;;;;;;34.33;31.00;;;;;22.57;47.55;100787.75;6134715;23;45233;-84
2023/06/15 03:17:35;;;;;;;;;;;;;;;;;;;;;
2023/06/15 03:20:57;;;;;;;;;33.00;32.00;;;;;22.64;48.48;100809.22;6159159;23;65810;-83
2023/06/15 03:23:49;;;;;;;;;33.00;31.67;;;;;22.60;48.30;100812.97;6084782;23;47433;-83
2023/06/15 03:29:52;;;;;;;;;35.33;33.33;;;;;22.35;47.98;100773.16;6101157;23;45489;-84
2023/06/15 03:32:53;;;;;;;;;;;;;;;;;;;;;
2023/06/15 03:35:53;;;;;;;;;31.67;30.00;;;;;22.33;48.42;100788.59;6099434;23;46260;-85
2023/06/15 03:38:52;;;;;;;;;33.67;32.00;;;;;22.28;48.34;100779.72;6075343;23;45402;-83
2023/06/15 03:42:06;;;;;;;;;40.33;33.00;;;;;22.39;48.16;100809.19;6101084;23;44898;-83
2023/06/15 03:51:40;;;;;;;;;;;;;;;;;;;;;
2023/06/15 04:05:48;;;;;;;;;;;;;;;;;;;;;
2023/06/15 04:08:55;;;;;;;;;35.00;31.67;;;;;22.22;49.85;100824.16;6160196;23;69063;-83
2023/06/15 04:11:59;;;;;;;;;;;;;;;;;;;;;
2023/06/15 04:15:26;;;;;;;;;;;;;;;;;;;;;
2023/06/15 04:18:10;;;;;;;;;40.67;34.67;;;;;22.06;50.29;100798.50;6103440;23;71143;-83
2023/06/15 04:21:10;;;;;;;;;;;;;;;;;;;;;
2023/06/15 04:24:22;;;;;;;;;35.67;33.67;;;;;22.30;50.14;100837.44;6134032;23;64995;-83
2023/06/15 04:27:13;;;;;;;;;;;;;;;;;;;;;
2023/06/15 04:29:57;;;;;;;;;37.67;34.33;;;;;22.41;51.16;100840.69;6158198;23;71871;-84
2023/06/15 04:36:34;;;;;;;;;;;;;;;;;;;;;
2023/06/15 04:40:04;;;;;;;;;39.67;34.00;;;;;22.57;50.44;100816.69;6115077;23;74672;-83
2023/06/15 04:46:24;;;;;;;;;37.00;33.67;;;;;22.90;50.23;100844.41;5998609;23;45547;-84
2023/06/15 04:57:08;;;;;;;;;33.67;31.33;;;;;23.17;49.71;100866.13;5918144;23;45236;-84
2023/06/15 05:00:28;;;;;;;;;;;;;;;;;;;;;
2023/06/15 05:18:52;;;;;;;;;;;;;;;;;;;;;
2023/06/15 05:35:42;;;;;;;;;34.67;32.00;;;;;24.40;47.79;100861.38;5920961;23;45461;-83
2023/06/15 06:03:47;;;;;;;;;37.67;34.67;;;;;25.22;46.06;100856.06;5808800;24;44943;-84
2023/06/15 06:17:53;;;;;;;;;36.00;33.00;;;;;25.91;45.71;100880.13;5792579;24;45261;-83
2023/06/15 06:24:19;;;;;;;;;36.00;32.33;;;;;26.00;44.89;100861.59;5907249;24;45394;-86
2023/06/15 06:37:37;;;;;;;;;35.33;30.00;;;;;26.39;43.58;100861.47;6029908;23;45393;-86
2023/06/15 06:40:18;;;;;;;;;31.00;30.00;;;;;26.61;43.18;100893.16;6048230;23;45602;-85
2023/06/15 06:47:00;;;;;;;;;30.67;29.00;;;;;26.58;42.79;100896.03;6036410;23;45461;-84
2023/06/15 06:50:05;;;;;;;;;;;;;;;;;;;;;
2023/06/15 06:53:34;;;;;;;;;33.00;30.33;;;;;26.80;42.57;100904.00;6005990;23;64990;-84
2023/06/15 07:03:04;;;;;;;;;30.67;30.33;;;;;26.90;41.62;100911.63;5807410;24;45358;-83
2023/06/15 07:08:24;;;;;;;;;30.67;30.00;;;;;26.90;40.84;100913.50;5880978;24;46333;-85
2023/06/15 11:15:10;;;;;;;;;15.67;15.67;;;;;29.41;31.59;100929.53;6199218;22;46145;-83
2023/06/15 11:18:06;;;;;;;;;12.33;12.33;;;;;29.60;31.04;100932.03;6255732;22;45490;-82
2023/06/15 11:20:38;;;;;;;;;13.00;12.33;;;;;29.56;30.94;100934.06;6253507;22;45279;-83
2023/06/15 11:23:29;;;;;;;;;15.33;15.33;;;;;29.33;31.11;100930.03;6253537;22;44890;-83
2023/06/15 11:26:42;;;;;;;;;14.67;14.00;;;;;29.21;31.13;100934.41;6278604;22;45592;-83
2023/06/15 11:30:06;;;;;;;;;;;;;;;;;;;;;
2023/06/15 11:47:10;;;;;;;;;17.67;16.00;;;;;29.27;31.46;100927.66;6226775;22;45128;-84
2023/06/15 11:53:27;;;;;;;;;17.00;17.00;;;;;29.46;31.79;100911.84;6162940;23;45488;-85
2023/06/15 11:55:56;;;;;;;;;20.00;20.00;;;;;29.41;31.59;100903.03;6166571;23;46774;-83
2023/06/15 11:58:45;;;;;;;;;19.67;18.67;;;;;29.26;31.87;100877.47;6168863;23;44805;-85
2023/06/15 12:01:21;;;;;;;;;19.33;18.00;;;;;29.37;31.83;100900.56;6195784;22;44871;-85
2023/06/15 12:03:51;;;;;;;;;18.33;15.00;;;;;29.22;31.80;100886.84;6208099;22;45379;-84
2023/06/15 12:06:34;;;;;;;;;13.33;13.33;;;;;29.29;31.54;100910.16;6230313;22;46991;-84
2023/06/15 12:09:04;;;;;;;;;16.33;16.33;;;;;29.12;31.84;100889.25;6256371;22;45213;-85
2023/06/15 12:23:12;;;;;;;;;21.00;21.00;;;;;29.40;32.46;100892.16;6199825;22;45343;-85
2023/06/15 12:25:41;;;;;;;;;16.67;16.00;;;;;29.48;31.78;100892.56;6077923;23;45372;-84
2023/06/15 12:28:30;;;;;;;;;17.33;16.00;;;;;29.55;32.30;100893.06;6104558;23;45354;-83
2023/06/15 12:31:11;;;;;;;;;18.00;16.33;;;;;29.40;32.33;100876.59;6101913;23;45287;-85
2023/06/15 12:34:04;;;;;;;;;16.00;16.00;;;;;29.25;32.34;100875.72;6080205;23;44941;-84
2023/06/15 12:36:56;;;;;;;;;20.33;17.33;;;;;29.45;31.15;100893.66;6075215;23;45421;-88
2023/06/15 12:39:28;;;;;;;;;18.67;18.67;;;;;29.47;30.92;100891.69;6083139;23;46073;-85
2023/06/15 12:42:20;;;;;;;;;18.67;18.67;;;;;29.49;30.71;100891.56;6104869;23;44783;-84
2023/06/15 12:44:45;;;;;;;;;20.33;19.00;;;;;29.34;30.39;100868.75;5988157;23;45348;-86
2023/06/15 12:47:24;;;;;;;;;18.00;17.00;;;;;29.61;30.28;100884.44;5969512;23;44915;-84
2023/06/15 12:50:41;;;;;;;;;17.67;17.67;;;;;29.51;30.47;100843.03;5967465;23;46606;-85
2023/06/15 12:53:16;;;;;;;;;18.33;18.33;;;;;29.89;30.37;100870.78;5991260;23;44713;-86
2023/06/15 12:56:00;;;;;;;;;17.67;17.67;;;;;29.71;30.31;100850.91;5989171;23;45414;-86
2023/06/15 13:01:10;;;;;;;;;16.33;16.33;;;;;29.55;29.98;100833.66;6213633;22;46492;-85
2023/06/15 13:03:36;;;;;;;;;21.00;19.33;;;;;29.57;30.18;100859.09;6233354;22;45605;-85
2023/06/15 13:06:03;;;;;;;;;19.00;17.33;;;;;29.71;30.13;100861.88;6233549;22;44678;-85
2023/06/15 13:12:50;;;;;;;;;;;;;;;;;;;;;
2023/06/15 13:15:45;;;;;;;;;23.33;20.33;;;;;29.82;29.71;100857.56;6136702;23;71554;-86
2023/06/15 13:18:14;;;;;;;;;17.67;17.67;;;;;30.04;28.74;100862.53;6132277;23;44661;-86
2023/06/15 13:21:04;;;;;;;;;15.33;15.33;;;;;30.25;29.24;100866.56;6135996;23;45612;-85
2023/06/15 14:30:50;;;;;;;;;18.67;18.67;;;;;40.43;20.41;100855.47;6256745;22;46182;-86
2023/06/15 14:34:05;;;;;;;;;18.33;15.67;;;;;42.15;20.04;100848.88;6227711;22;46622;-86
2023/06/15 14:40:26;;;;;;;;;15.00;15.00;;;;;44.97;18.11;100839.91;6204983;22;44690;-87
2023/06/15 15:21:03;;;;;;;;;15.67;15.67;;;;;42.51;18.28;100810.06;6236227;22;46964;-85
2023/06/15 15:23:35;;;;;;;;;13.67;13.67;;;;;40.75;18.72;100824.03;6258596;22;47325;-85
2023/06/15 15:26:14;;;;;;;;;15.00;15.00;;;;;41.40;19.34;100815.78;6260070;22;45512;-86
2023/06/15 15:29:00;;;;;;;;;;;;;;;;;;;;;
2023/06/15 15:32:00;;;;;;;;;14.67;14.67;;;;;43.57;16.91;100817.66;6259557;22;65081;-85
2023/06/15 15:43:11;;;;;;;;;14.67;14.67;;;;;36.88;20.75;100803.13;6192371;22;45265;-85
2023/06/15 15:45:50;;;;;;;;;12.00;12.00;;;;;36.11;21.59;100838.00;6160490;23;45663;-86
2023/06/15 15:48:16;;;;;;;;;14.00;12.67;;;;;35.66;22.57;100822.72;6160926;22;45231;-85
2023/06/15 15:50:53;;;;;;;;;15.00;15.00;;;;;38.03;21.74;100806.53;6156917;22;45491;-86
2023/06/15 15:53:21;;;;;;;;;14.33;14.33;;;;;40.80;18.43;100829.06;6137680;23;45664;-85
2023/06/15 15:56:14;;;;;;;;;17.00;16.00;;;;;42.27;18.74;100802.69;6160308;22;46613;-85
2023/06/15 15:59:28;;;;;;;;;13.33;13.33;;;;;44.61;17.52;100817.53;6159675;22;45485;-85
2023/06/15 16:02:06;;;;;;;;;17.33;16.33;;;;;45.90;15.35;100820.91;6161030;22;44872;-85
2023/06/15 16:05:04;;;;;;;;;;;;;;;;;;;;;
2023/06/15 16:08:07;;;;;;;;;14.00;13.33;;;;;43.85;15.46;100824.34;6147196;22;75486;-86
2023/06/15 16:10:35;;;;;;;;;13.33;13.33;;;;;44.31;17.14;100812.00;6160166;23;45357;-86
2023/06/15 16:13:12;;;;;;;;;14.33;14.00;;;;;45.42;16.00;100803.13;6162215;23;44913;-84
2023/06/15 16:15:52;;;;;;;;;15.00;13.00;;;;;46.38;14.54;100810.72;6161976;23;45389;-86
2023/06/15 16:18:20;;;;;;;;;10.00;10.00;;;;;46.79;15.26;100821.88;6160870;23;47127;-85
2023/06/15 16:20:46;;;;;;;;;11.00;11.00;;;;;47.05;13.63;100818.19;6188827;22;45796;-85
2023/06/15 16:23:12;;;;;;;;;12.00;12.00;;;;;44.90;14.92;100824.94;6254986;22;45727;-85
2023/06/15 16:25:37;;;;;;;;;12.00;12.00;;;;;42.14;16.10;100796.84;6230386;22;45311;-86
2023/06/15 16:28:03;;;;;;;;;14.33;12.67;;;;;40.66;17.74;100827.81;6256372;22;45405;-84
2023/06/15 16:30:29;;;;;;;;;12.33;12.33;;;;;40.18;18.00;100796.88;6228836;22;45367;-84
2023/06/15 16:32:58;;;;;;;;;13.33;13.00;;;;;39.43;18.55;100827.34;6255874;22;44890;-85
2023/06/15 16:35:23;;;;;;;;;14.00;13.00;;;;;37.97;19.38;100801.59;6255069;22;45385;-84
2023/06/15 16:37:51;;;;;;;;;13.00;13.00;;;;;39.06;19.44;100808.13;6229871;22;46840;-84
2023/06/15 16:40:17;;;;;;;;;14.67;14.67;;;;;40.69;18.89;100813.53;6258217;22;45479;-84
2023/06/15 16:42:42;;;;;;;;;13.00;13.00;;;;;42.42;17.55;100815.88;6227845;22;44949;-85
2023/06/15 16:45:09;;;;;;;;;13.33;12.33;;;;;43.28;16.69;100805.41;6255488;22;45319;-85
2023/06/15 16:47:35;;;;;;;;;12.33;12.33;;;;;44.08;15.96;100823.41;6231068;22;47229;-84
2023/06/15 16:50:04;;;;;;;;;14.33;13.00;;;;;44.70;15.84;100817.19;6257199;22;45732;-83
2023/06/15 16:52:30;;;;;;;;;12.00;12.00;;;;;43.91;15.59;100826.34;6256414;22;45343;-85
2023/06/15 16:58:17;;;;;;;;;11.00;10.33;;;;;41.95;17.11;100831.66;6255413;22;45191;-86
2023/06/15 17:00:43;;;;;;;;;13.00;12.00;;;;;42.74;16.05;100829.66;6228989;22;45380;-84
2023/06/15 17:03:08;;;;;;;;;13.00;13.00;;;;;43.41;16.31;100827.13;6229709;22;45368;-84
2023/06/15 17:05:34;;;;;;;;;24.67;24.67;;;;;44.14;16.49;100817.00;6229260;22;45335;-84
2023/06/15 17:07:59;;;;;;;;;14.33;14.33;;;;;45.03;16.19;100827.88;6254195;22;46977;-85
2023/06/15 17:10:25;;;;;;;;;11.00;11.00;;;;;45.79;15.70;100826.25;6255855;22;45390;-83
2023/06/15 17:12:53;;;;;;;;;11.33;11.33;;;;;46.21;14.81;100829.94;6256034;22;45297;-84
2023/06/15 17:15:19;;;;;;;;;13.33;13.33;;;;;45.86;14.65;100833.66;6229848;22;45462;-85
2023/06/15 17:17:44;;;;;;;;;10.00;10.00;;;;;45.57;14.79;100840.38;6254075;22;46588;-84
2023/06/15 17:20:59;;;;;;;;;11.33;11.33;;;;;45.70;15.03;100839.63;6256265;22;45382;-85
2023/06/15 17:23:25;;;;;;;;;13.00;11.33;;;;;45.21;14.73;100830.19;6254398;22;45489;-83
2023/06/15 17:25:50;;;;;;;;;14.00;13.00;;;;;44.44;15.21;100836.50;6256332;22;45351;-84
2023/06/15 17:28:16;;;;;;;;;11.33;11.33;;;;;42.80;15.86;100841.13;6228505;22;46899;-83
2023/06/15 17:30:41;;;;;;;;;12.00;12.00;;;;;40.89;17.17;100839.19;6228526;22;45348;-85
2023/06/15 17:33:08;;;;;;;;;11.00;9.67;;;;;39.27;18.30;100855.91;6229928;22;45339;-84
2023/06/15 17:35:37;;;;;;;;;12.67;12.67;;;;;37.98;18.66;100845.00;6229153;22;45363;-85
2023/06/15 17:38:02;;;;;;;;;13.00;13.00;;;;;36.61;20.09;100849.91;6255779;22;45459;-85
2023/06/15 17:40:28;;;;;;;;;11.00;11.00;;;;;35.71;20.03;100842.53;6254904;22;44824;-84
2023/06/15 17:42:55;;;;;;;;;11.00;11.00;;;;;35.08;20.64;100842.56;6245923;22;45293;-84
2023/06/15 17:45:57;;;;;;;;;13.00;12.67;;;;;34.54;21.34;100846.31;6224751;22;45255;-84
2023/06/15 17:48:23;;;;;;;;;8.00;8.00;;;;;33.85;22.04;100844.66;6223749;22;45641;-85
2023/06/15 17:50:49;;;;;;;;;10.67;10.67;;;;;33.40;22.12;100839.13;6225339;22;45273;-84
2023/06/15 17:53:15;;;;;;;;;12.33;12.00;;;;;33.17;22.49;100855.63;6198718;22;45470;-84
2023/06/15 17:55:40;;;;;;;;;11.67;11.67;;;;;32.88;22.68;100839.50;6198259;22;45482;-84
2023/06/15 17:58:06;;;;;;;;;12.00;12.00;;;;;32.56;23.33;100858.53;6226411;22;45136;-84
2023/06/15 18:00:31;;;;;;;;;14.00;14.00;;;;;32.32;23.55;100852.06;6226856;22;45232;-84
2023/06/15 18:02:58;;;;;;;;;11.00;9.33;;;;;32.11;23.35;100854.59;6226713;22;45334;-84
2023/06/15 18:05:24;;;;;;;;;10.33;10.33;;;;;31.96;23.69;100862.94;6226295;22;45445;-85
2023/06/15 18:07:50;;;;;;;;;12.67;12.67;;;;;31.84;23.72;100859.22;6224521;22;45290;-85
2023/06/15 18:10:16;;;;;;;;;14.67;12.00;;;;;31.59;23.67;100860.16;6225219;22;45245;-85
2023/06/15 18:12:42;;;;;;;;;9.00;9.00;;;;;31.40;24.43;100856.94;6197695;22;45354;-85
2023/06/15 18:15:09;;;;;;;;;10.00;10.00;;;;;31.26;24.39;100864.28;6197148;22;45372;-85
2023/06/15 18:17:37;;;;;;;;;10.67;10.67;;;;;31.12;24.26;100860.75;6223915;22;45453;-85
2023/06/15 18:20:06;;;;;;;;;12.67;12.67;;;;;31.06;24.91;100862.94;6197742;22;45335;-85
2023/06/15 18:22:32;;;;;;;;;11.00;11.00;;;;;30.97;25.01;100873.72;6226417;22;45263;-84
2023/06/15 18:24:57;;;;;;;;;10.00;10.00;;;;;30.84;24.95;100860.78;6225318;22;45314;-84
2023/06/15 18:27:23;;;;;;;;;13.33;12.00;;;;;30.78;25.58;100855.72;6223645;22;54036;-84
2023/06/15 18:29:51;;;;;;;;;11.67;10.00;;;;;30.61;25.50;100865.13;6199281;22;44756;-84
2023/06/15 18:32:16;;;;;;;;;13.00;12.00;;;;;30.50;25.31;100873.19;6224167;22;45712;-84
2023/06/15 18:34:51;;;;;;;;;10.67;10.67;;;;;30.53;25.52;100870.25;6225699;22;45311;-83
2023/06/15 18:37:17;;;;;;;;;12.00;12.00;;;;;30.41;26.16;100871.94;6225163;22;45299;-85
2023/06/15 18:39:45;;;;;;;;;8.67;8.67;;;;;30.33;25.54;100885.31;6225542;22;45240;-83
2023/06/15 18:42:11;;;;;;;;;13.33;12.00;;;;;30.21;25.70;100866.88;6225782;22;45835;-84
2023/06/15 18:44:37;;;;;;;;;13.33;11.00;;;;;30.16;26.19;100875.44;6227412;22;45406;-83
2023/06/15 18:47:03;;;;;;;;;10.00;8.33;;;;;30.09;26.12;100882.28;6254277;22;45733;-84
2023/06/15 18:49:28;;;;;;;;;12.67;11.33;;;;;30.02;26.78;100869.97;6252221;22;45331;-84
2023/06/15 18:51:54;;;;;;;;;9.67;9.67;;;;;29.95;26.62;100885.06;6253140;22;44849;-84
2023/06/15 18:54:19;;;;;;;;;11.00;11.00;;;;;29.93;26.72;100879.66;6226707;22;45384;-83
2023/06/15 18:56:45;;;;;;;;;10.67;10.67;;;;;29.87;26.79;100877.31;6226831;22;46622;-84
2023/06/15 18:59:10;;;;;;;;;12.00;12.00;;;;;29.83;27.10;100883.97;6226423;22;45320;-85
2023/06/15 19:01:36;;;;;;;;;9.67;8.67;;;;;29.67;27.38;100871.25;6226208;22;45141;-85
2023/06/15 19:04:02;;;;;;;;;11.00;11.00;;;;;29.65;27.52;100886.00;6251641;22;45220;-85
2023/06/15 19:06:27;;;;;;;;;9.67;9.67;;;;;29.50;27.39;100885.13;6226277;22;45307;-84
2023/06/15 19:08:53;;;;;;;;;7.33;7.33;;;;;29.44;27.54;100882.78;6252061;22;44725;-84
2023/06/15 19:11:18;;;;;;;;;7.67;7.67;;;;;29.39;27.65;100876.69;6254132;22;45263;-84
2023/06/15 19:14:28;;;;;;;;;10.00;10.00;;;;;29.50;27.36;100896.97;6227066;22;45276;-84
2023/06/15 19:16:54;;;;;;;;;11.33;11.00;;;;;29.35;27.21;100891.56;6252129;22;47635;-84
2023/06/15 19:19:19;;;;;;;;;10.00;9.33;;;;;29.29;27.27;100893.72;6254837;22;45343;-84
2023/06/15 19:21:46;;;;;;;;;12.33;10.33;;;;;29.29;27.66;100893.72;6228004;22;45323;-83
2023/06/15 19:24:12;;;;;;;;;10.67;10.67;;;;;29.16;27.25;100889.09;6228968;22;45287;-83
2023/06/15 19:26:39;;;;;;;;;9.00;9.00;;;;;29.11;28.00;100892.13;6255012;22;46033;-83
2023/06/15 19:29:08;;;;;;;;;11.33;10.33;;;;;28.99;27.99;100890.09;6228915;22;45271;-84
2023/06/15 19:31:33;;;;;;;;;10.00;10.00;;;;;28.91;27.70;100888.69;6228859;22;45289;-84
2023/06/15 19:34:00;;;;;;;;;9.00;9.00;;;;;28.88;28.33;100894.38;6255270;22;45692;-84
2023/06/15 19:36:26;;;;;;;;;11.33;11.33;;;;;28.78;27.86;100897.72;6229450;22;46697;-86
2023/06/15 19:38:51;;;;;;;;;9.67;9.67;;;;;28.72;28.04;100897.13;6256342;22;45292;-84
2023/06/15 19:41:16;;;;;;;;;8.00;8.00;;;;;28.66;28.79;100888.38;6227453;22;45420;-84
2023/06/15 19:43:42;;;;;;;;;9.33;9.33;;;;;28.52;28.61;100892.84;6227759;22;45442;-83
2023/06/15 19:46:08;;;;;;;;;11.33;11.33;;;;;28.51;29.43;100906.59;6255877;22;44841;-84
2023/06/15 19:48:35;;;;;;;;;11.33;11.33;;;;;28.41;28.92;100905.34;6255915;22;45358;-85
2023/06/15 19:51:04;;;;;;;;;10.67;10.67;;;;;28.32;29.57;100906.78;6230422;22;45308;-84
2023/06/15 19:53:36;;;;;;;;;10.67;10.67;;;;;28.29;29.49;100912.41;6257770;22;45271;-84
2023/06/15 19:56:03;;;;;;;;;12.33;11.67;;;;;28.19;30.13;100914.78;6229921;22;47134;-84
2023/06/15 19:58:31;;;;;;;;;12.00;12.00;;;;;28.04;30.74;100900.13;6258151;22;45350;-85
2023/06/15 20:00:59;;;;;;;;;13.67;11.33;;;;;27.96;30.44;100905.16;6254845;22;45287;-85
2023/06/15 20:03:28;;;;;;;;;10.67;10.67;;;;;27.90;30.37;100910.97;6230987;22;45348;-85
2023/06/15 20:06:00;;;;;;;;;13.33;12.00;;;;;27.87;30.61;100920.19;6228548;22;45360;-84
2023/06/15 20:08:33;;;;;;;;;12.00;12.00;;;;;27.84;30.04;100930.41;6229609;22;45433;-84
2023/06/15 20:11:09;;;;;;;;;12.00;12.00;;;;;27.78;30.98;100931.63;6255883;22;45373;-84
2023/06/15 20:13:36;;;;;;;;;13.67;11.67;;;;;27.67;30.88;100932.22;6254933;22;45271;-85
2023/06/15 20:16:08;;;;;;;;;12.67;12.00;;;;;27.65;31.03;100939.63;6255900;22;45429;-85
2023/06/15 20:18:35;;;;;;;;;16.67;15.67;;;;;27.46;30.79;100916.97;6254577;22;45295;-85
2023/06/15 20:21:01;;;;;;;;;10.00;10.00;;;;;27.50;31.35;100932.22;6230926;22;45268;-85
2023/06/15 20:23:29;;;;;;;;;13.00;13.00;;;;;27.48;31.24;100935.03;6259565;22;45577;-85
2023/06/15 20:25:55;;;;;;;;;10.00;9.33;;;;;27.49;31.52;100952.31;6255416;22;46194;-83
2023/06/15 20:28:21;;;;;;;;;12.00;12.00;;;;;27.41;31.76;100946.38;6257150;22;45739;-85
2023/06/15 20:30:48;;;;;;;;;10.00;10.00;;;;;27.41;31.72;100952.75;6229210;22;45252;-85
2023/06/15 20:33:18;;;;;;;;;13.00;12.67;;;;;27.30;31.78;100945.09;6257200;22;45367;-85
2023/06/15 20:35:44;;;;;;;;;13.00;13.00;;;;;27.29;31.60;100953.38;6229944;22;47029;-85
2023/06/15 20:38:14;;;;;;;;;11.00;11.00;;;;;27.36;31.78;100956.66;6230109;22;45286;-84
2023/06/15 20:40:42;;;;;;;;;11.33;11.33;;;;;27.28;32.17;100962.53;6257378;22;45383;-84
2023/06/15 20:43:07;;;;;;;;;13.00;13.00;;;;;27.20;31.77;100960.16;6230666;22;45493;-84
2023/06/15 20:45:33;;;;;;;;;12.33;12.33;;;;;27.20;31.81;100960.16;6257511;22;45260;-84
2023/06/15 20:47:58;;;;;;;;;11.33;11.00;;;;;27.17;31.90;100959.44;6257175;22;45351;-84
2023/06/15 20:50:24;;;;;;;;;15.33;15.33;;;;;27.18;32.39;100967.53;6231558;22;45094;-84
2023/06/15 20:52:49;;;;;;;;;14.33;12.33;;;;;27.13;31.91;100966.91;6230861;22;45356;-84
2023/06/15 20:55:15;;;;;;;;;13.33;13.33;;;;;27.06;32.63;100963.59;6230175;22;48564;-84
2023/06/15 20:57:43;;;;;;;;;12.00;12.00;;;;;27.08;32.15;100966.25;6231619;22;45418;-83
2023/06/15 21:00:10;;;;;;;;;12.67;12.00;;;;;27.03;32.60;100971.09;6231883;22;45410;-83
2023/06/15 21:02:38;;;;;;;;;10.67;10.67;;;;;27.00;32.91;100957.56;6258536;22;45438;-84
2023/06/15 21:05:06;;;;;;;;;10.67;10.67;;;;;26.98;33.27;100960.38;6256602;22;45454;-85
2023/06/15 21:07:33;;;;;;;;;7.67;7.67;;;;;26.91;33.28;100959.81;6258468;22;45327;-84
2023/06/15 21:10:01;;;;;;;;;15.33;14.33;;;;;26.89;32.47;100960.88;6230984;22;45446;-82
2023/06/15 21:12:26;;;;;;;;;13.00;13.00;;;;;26.85;33.29;100964.72;6258373;22;45474;-84
2023/06/15 21:14:52;;;;;;;;;12.67;12.67;;;;;26.77;32.90;100948.72;6258789;22;45412;-84
2023/06/15 21:17:17;;;;;;;;;15.00;13.00;;;;;26.76;33.16;100949.66;6230453;22;45378;-83
2023/06/15 21:19:46;;;;;;;;;12.00;12.00;;;;;26.75;33.10;100950.63;6231532;22;45289;-84
2023/06/15 21:22:25;;;;;;;;;12.67;12.67;;;;;26.79;32.88;100957.72;6256979;22;45306;-85
2023/06/15 21:24:51;;;;;;;;;14.33;14.33;;;;;26.68;33.50;100947.34;6256220;22;46936;-85
2023/06/15 21:27:16;;;;;;;;;14.33;13.00;;;;;26.69;33.36;100953.69;6231487;22;44868;-85
2023/06/15 21:29:42;;;;;;;;;7.67;7.00;;;;;26.65;33.93;100946.59;6232535;22;45331;-84
2023/06/15 21:32:20;;;;;;;;;13.67;12.67;;;;;26.57;33.40;100954.25;6256867;22;45275;-83
2023/06/15 21:34:45;;;;;;;;;12.33;12.33;;;;;26.52;33.64;100941.72;6232464;22;47173;-83
2023/06/15 21:37:11;;;;;;;;;12.33;12.33;;;;;26.58;33.48;100956.03;6233942;22;45743;-84
2023/06/15 21:39:36;;;;;;;;;13.00;13.00;;;;;26.53;33.54;100959.84;6232066;22;45315;-84
2023/06/15 21:42:03;;;;;;;;;13.33;11.67;;;;;26.50;33.75;100959.09;6259446;22;44837;-83
2023/06/15 21:44:35;;;;;;;;;13.67;13.67;;;;;26.59;33.51;100964.16;6230217;22;46617;-84
2023/06/15 21:47:00;;;;;;;;;12.67;11.33;;;;;26.49;33.77;100963.69;6258566;22;45342;-84
2023/06/15 21:49:26;;;;;;;;;13.33;12.33;;;;;26.47;33.64;100960.16;6256033;22;45235;-84
2023/06/15 21:51:51;;;;;;;;;12.67;12.67;;;;;26.44;34.38;100957.59;6230249;22;45233;-85
2023/06/15 21:54:16;;;;;;;;;13.00;13.00;;;;;26.39;33.88;100950.56;6255758;22;47000;-85
2023/06/15 21:56:42;;;;;;;;;13.33;12.33;;;;;26.39;34.16;100954.19;6258813;22;45286;-84
2023/06/15 21:59:09;;;;;;;;;14.00;14.00;;;;;26.40;34.18;100955.06;6255833;22;45277;-84
2023/06/15 22:01:34;;;;;;;;;14.67;14.00;;;;;26.32;34.10;100950.00;6256326;22;45335;-84
2023/06/15 22:04:00;;;;;;;;;12.33;12.33;;;;;26.29;34.34;100951.00;6227692;22;46803;-84
2023/06/15 22:06:26;;;;;;;;;13.00;12.67;;;;;26.24;34.24;100946.72;6255358;22;45343;-84
2023/06/15 22:08:51;;;;;;;;;13.00;11.67;;;;;26.25;34.69;100953.97;6257112;22;45419;-83
2023/06/15 22:11:17;;;;;;;;;14.00;13.00;;;;;26.24;34.69;100952.19;6257488;22;45397;-84
2023/06/15 22:13:44;;;;;;;;;12.33;12.33;;;;;26.24;34.35;100952.19;6229765;22;46964;-84
2023/06/15 22:16:11;;;;;;;;;11.33;11.33;;;;;26.15;34.54;100953.53;6259302;22;45411;-83
2023/06/15 22:18:39;;;;;;;;;14.33;13.33;;;;;26.14;34.79;100947.19;6232818;22;45309;-83
2023/06/15 22:21:06;;;;;;;;;13.67;12.67;;;;;26.11;34.83;100949.16;6259880;22;45706;-84
2023/06/15 22:23:32;;;;;;;;;13.67;13.00;;;;;26.07;35.10;100950.28;6260079;22;45425;-83
2023/06/15 22:26:01;;;;;;;;;19.33;18.67;;;;;26.08;35.29;100952.94;6258168;22;45370;-84
2023/06/15 22:28:27;;;;;;;;;14.33;12.00;;;;;25.92;35.59;100943.72;6231796;22;45269;-85
2023/06/15 22:30:52;;;;;;;;;15.67;15.67;;;;;25.93;35.83;100950.91;6230004;22;45323;-83
2023/06/15 22:33:22;;;;;;;;;18.33;18.33;;;;;25.92;35.99;100957.34;6255763;22;46632;-85
2023/06/15 22:35:51;;;;;;;;;20.67;19.00;;;;;25.87;35.84;100956.63;6258065;22;45480;-84
2023/06/15 22:38:17;;;;;;;;;18.67;18.67;;;;;25.86;36.05;100952.16;6258310;22;45697;-83
2023/06/15 22:40:43;;;;;;;;;16.67;15.67;;;;;25.81;35.86;100952.34;6255132;22;45421;-84
2023/06/15 22:47:02;;;;;;;;;20.67;19.67;;;;;25.78;36.60;100954.34;6243927;22;45526;-84
2023/06/15 22:49:28;;;;;;;;;18.33;17.33;;;;;25.67;36.09;100952.09;6226691;22;44757;-84
2023/06/15 22:51:57;;;;;;;;;18.67;18.00;;;;;25.63;36.68;100951.38;6200665;22;45322;-84
2023/06/15 22:54:23;;;;;;;;;18.33;18.00;;;;;25.54;36.71;100935.44;6227453;22;45984;-85
2023/06/15 22:56:52;;;;;;;;;18.67;18.00;;;;;25.60;36.77;100946.03;6227561;22;45407;-84
2023/06/15 22:59:18;;;;;;;;;19.33;19.33;;;;;25.55;36.96;100950.78;6228144;22;45115;-84
2023/06/15 23:01:44;;;;;;;;;23.00;22.33;;;;;25.48;36.98;100938.44;6224733;22;45350;-83
2023/06/15 23:04:11;;;;;;;;;20.33;20.33;;;;;25.44;37.47;100942.25;6199962;22;47053;-84
2023/06/15 23:06:41;;;;;;;;;20.00;20.00;;;;;25.42;37.34;100944.16;6201494;22;45528;-84
2023/06/15 23:09:12;;;;;;;;;22.00;22.00;;;;;25.43;37.58;100954.06;6228436;22;45394;-83